createdAt,value
2018-09-02T00:01:09.615Z,90.00
2018-09-02T00:03:41.029Z,89.80
2018-09-02T00:06:12.668Z,89.40
2018-09-02T00:08:44.084Z,89.60
2018-09-02T00:11:15.146Z,90.00
2018-09-02T00:13:46.581Z,89.70
2018-09-02T00:16:17.882Z,89.60
2018-09-02T00:18:49.331Z,89.50
2018-09-02T00:21:20.783Z,89.60
2018-09-02T00:23:52.241Z,90.00
2018-09-02T00:26:23.773Z,89.60
2018-09-02T00:28:55.340Z,89.10
2018-09-02T00:31:26.901Z,89.30
2018-09-02T00:33:58.297Z,90.10
2018-09-02T00:36:29.540Z,90.00
2018-09-02T00:39:00.862Z,89.80
2018-09-02T00:41:32.203Z,90.00
2018-09-02T00:44:03.705Z,89.20
2018-09-02T00:46:35.395Z,89.20
2018-09-02T00:49:06.976Z,89.50
2018-09-02T00:51:38.210Z,89.60
2018-09-02T00:54:09.539Z,90.00
2018-09-02T00:56:41.024Z,90.10
2018-09-02T00:59:12.356Z,90.10
2018-09-02T01:01:43.642Z,90.20
2018-09-02T01:04:15.009Z,90.10
2018-09-02T01:06:46.521Z,90.00
2018-09-02T01:09:17.829Z,90.00
2018-09-02T01:11:49.156Z,90.10
2018-09-02T01:14:20.590Z,90.60
2018-09-02T01:16:52.094Z,90.50
2018-09-02T01:19:23.561Z,90.40
2018-09-02T01:21:54.932Z,90.50
2018-09-02T01:24:26.185Z,90.50
2018-09-02T01:26:57.559Z,90.50
2018-09-02T01:29:29.043Z,90.40
2018-09-02T01:32:00.494Z,90.10
2018-09-02T01:34:32.228Z,89.90
2018-09-02T01:37:03.801Z,89.50
2018-09-02T01:39:35.425Z,89.50
2018-09-02T01:42:06.838Z,89.20
2018-09-02T01:44:38.349Z,89.20
2018-09-02T01:47:09.856Z,89.20
2018-09-02T01:49:41.446Z,89.40
2018-09-02T01:52:13.049Z,89.20
2018-09-02T01:54:44.249Z,89.50
2018-09-02T01:57:15.794Z,89.50
2018-09-02T01:59:47.212Z,89.60
2018-09-02T02:02:18.334Z,89.30
2018-09-02T02:04:49.608Z,90.00
2018-09-02T02:07:21.171Z,89.40
2018-09-02T02:09:52.400Z,89.80
2018-09-02T02:12:23.589Z,89.90
2018-09-02T02:14:55.236Z,90.00
2018-09-02T02:17:26.788Z,90.10
2018-09-02T02:19:58.454Z,90.30
2018-09-02T02:22:29.836Z,90.40
2018-09-02T02:25:01.577Z,90.40
2018-09-02T02:27:33.069Z,90.50
2018-09-02T02:30:04.495Z,90.60
2018-09-02T02:32:35.860Z,90.50
2018-09-02T02:35:07.419Z,90.40
2018-09-02T02:37:38.949Z,90.60
2018-09-02T02:40:10.319Z,90.80
2018-09-02T02:42:41.776Z,90.80
2018-09-02T02:45:13.113Z,90.90
2018-09-02T02:47:44.648Z,90.90
2018-09-02T02:50:16.127Z,90.90
2018-09-02T02:52:52.533Z,90.70
2018-09-02T02:55:24.134Z,90.80
2018-09-02T02:57:55.165Z,90.90
2018-09-02T03:00:26.720Z,91.00
2018-09-02T03:02:58.002Z,91.00
2018-09-02T03:05:29.715Z,91.10
2018-09-02T03:08:02.274Z,91.00
2018-09-02T03:10:33.783Z,91.00
2018-09-02T03:13:05.239Z,91.20
2018-09-02T03:15:36.766Z,91.20
2018-09-02T03:18:08.186Z,91.20
2018-09-02T03:20:39.883Z,91.30
2018-09-02T03:23:11.315Z,91.20
2018-09-02T03:25:42.719Z,91.10
2018-09-02T03:28:14.072Z,91.20
2018-09-02T03:30:45.601Z,91.10
2018-09-02T03:33:17.019Z,91.10
2018-09-02T03:35:48.476Z,91.10
2018-09-02T03:38:19.830Z,91.10
2018-09-02T03:40:51.187Z,91.30
2018-09-02T03:43:22.410Z,90.80
2018-09-02T03:45:53.783Z,90.70
2018-09-02T03:48:24.946Z,90.60
2018-09-02T03:50:56.397Z,90.50
2018-09-02T03:53:27.892Z,90.50
2018-09-02T03:55:59.229Z,90.30
2018-09-02T03:58:30.760Z,90.20
2018-09-02T04:01:02.296Z,90.10
2018-09-02T04:03:33.633Z,90.10
2018-09-02T04:06:05.474Z,90.10
2018-09-02T04:08:37.533Z,90.20
2018-09-02T04:11:09.099Z,90.20
2018-09-02T04:13:40.448Z,90.20
2018-09-02T04:16:11.912Z,90.10
2018-09-02T04:18:43.162Z,90.10
2018-09-02T04:21:14.376Z,90.30
2018-09-02T04:23:46.778Z,89.90
2018-09-02T04:26:18.403Z,89.80
2018-09-02T04:28:49.776Z,89.80
2018-09-02T04:31:21.323Z,89.90
2018-09-02T04:33:52.620Z,90.20
2018-09-02T04:36:24.456Z,90.30
2018-09-02T04:38:55.886Z,90.00
2018-09-02T04:41:27.269Z,89.60
2018-09-02T04:43:58.797Z,88.90
2018-09-02T04:46:30.548Z,88.90
2018-09-02T04:49:02.336Z,89.20
2018-09-02T04:51:33.836Z,89.10
2018-09-02T04:54:05.264Z,88.80
2018-09-02T04:56:36.562Z,88.30
2018-09-02T04:59:08.069Z,87.60
2018-09-02T05:01:39.838Z,87.00
2018-09-02T05:04:11.476Z,86.90
2018-09-02T05:06:44.137Z,86.50
2018-09-02T05:09:15.646Z,87.40
2018-09-02T05:11:47.064Z,86.90
2018-09-02T05:14:18.805Z,86.40
2018-09-02T05:16:50.419Z,85.80
2018-09-02T05:19:22.236Z,85.20
2018-09-02T05:21:53.635Z,85.40
2018-09-02T05:24:25.350Z,86.00
2018-09-02T05:26:56.908Z,86.20
2018-09-02T05:29:28.391Z,86.60
2018-09-02T05:31:59.872Z,86.70
2018-09-02T05:34:31.305Z,86.40
2018-09-02T05:37:02.984Z,85.80
2018-09-02T05:39:34.498Z,85.80
2018-09-02T05:42:06.182Z,84.30
2018-09-02T05:44:37.532Z,82.50
2018-09-02T05:47:09.077Z,80.60
2018-09-02T05:49:41.619Z,79.80
2018-09-02T05:52:13.255Z,78.70
2018-09-02T05:54:44.808Z,77.00
2018-09-02T05:57:16.016Z,76.60
2018-09-02T05:59:47.452Z,75.60
2018-09-02T06:02:19.053Z,74.60
2018-09-02T06:04:51.012Z,73.50
2018-09-02T06:07:22.173Z,73.60
2018-09-02T06:09:53.651Z,72.30
2018-09-02T06:12:25.148Z,71.40
2018-09-02T06:14:56.629Z,72.40
2018-09-02T06:17:28.347Z,73.50
2018-09-02T06:20:00.072Z,74.40
2018-09-02T06:22:31.531Z,73.10
2018-09-02T06:25:02.878Z,72.50
2018-09-02T06:27:34.389Z,71.00
2018-09-02T06:30:05.660Z,70.90
2018-09-02T06:32:37.015Z,70.40
2018-09-02T06:35:08.433Z,70.20
2018-09-02T06:37:40.185Z,70.20
2018-09-02T06:40:11.436Z,68.80
2018-09-02T06:42:43.031Z,67.60
2018-09-02T06:45:14.255Z,66.50
2018-09-02T06:47:45.732Z,64.80
2018-09-02T06:50:17.286Z,62.50
2018-09-02T06:52:48.680Z,62.80
2018-09-02T06:55:20.137Z,64.70
2018-09-02T06:57:51.565Z,66.60
2018-09-02T07:00:23.051Z,69.30
2018-09-02T07:02:54.451Z,69.30
2018-09-02T07:05:26.145Z,70.20
2018-09-02T07:07:57.775Z,71.40
2018-09-02T07:10:29.349Z,72.30
2018-09-02T07:13:00.533Z,73.00
2018-09-02T07:15:31.931Z,73.10
2018-09-02T07:18:03.634Z,72.80
2018-09-02T07:20:35.133Z,73.20
2018-09-02T07:23:06.582Z,73.30
2018-09-02T07:25:38.032Z,73.10
2018-09-02T07:28:09.314Z,73.10
2018-09-02T07:30:40.952Z,72.40
2018-09-02T07:33:12.760Z,71.80
2018-09-02T07:35:44.311Z,70.60
2018-09-02T07:38:15.889Z,71.30
2018-09-02T07:40:47.325Z,71.50
2018-09-02T07:43:18.708Z,70.40
2018-09-02T07:45:50.063Z,68.50
2018-09-02T07:48:21.531Z,66.60
2018-09-02T07:50:52.936Z,66.00
2018-09-02T07:53:24.369Z,65.10
2018-09-02T07:55:55.775Z,63.50
2018-09-02T07:58:27.633Z,62.10
2018-09-02T08:00:59.069Z,60.30
2018-09-02T08:03:30.179Z,59.30
2018-09-02T08:06:02.613Z,59.30
2018-09-02T08:08:34.018Z,59.70
2018-09-02T08:11:05.651Z,60.60
2018-09-02T08:13:37.053Z,60.90
2018-09-02T08:16:08.541Z,61.90
2018-09-02T08:18:39.805Z,60.20
2018-09-02T08:21:11.218Z,58.90
2018-09-02T08:23:42.805Z,57.30
2018-09-02T08:26:14.074Z,56.30
2018-09-02T08:28:45.714Z,56.30
2018-09-02T08:31:17.499Z,55.50
2018-09-02T08:33:49.003Z,55.30
2018-09-02T08:36:20.348Z,54.40
2018-09-02T08:38:51.785Z,53.20
2018-09-02T08:41:24.015Z,52.30
2018-09-02T08:43:54.979Z,53.70
2018-09-02T08:46:26.540Z,54.30
2018-09-02T08:48:58.009Z,55.30
2018-09-02T08:51:29.653Z,54.90
2018-09-02T08:54:01.232Z,53.60
2018-09-02T08:56:32.625Z,53.30
2018-09-02T08:59:04.292Z,52.30
2018-09-02T09:01:36.001Z,50.90
2018-09-02T09:04:07.667Z,49.10
2018-09-02T09:06:39.093Z,49.30
2018-09-02T09:09:10.568Z,50.20
2018-09-02T09:11:41.901Z,50.90
2018-09-02T09:14:13.613Z,51.10
2018-09-02T09:16:45.479Z,49.50
2018-09-02T09:19:16.906Z,49.10
2018-09-02T09:21:48.496Z,50.20
2018-09-02T09:24:19.951Z,51.30
2018-09-02T09:26:51.668Z,51.60
2018-09-02T09:29:23.209Z,52.90
2018-09-02T09:31:54.684Z,53.00
2018-09-02T09:34:26.166Z,52.20
2018-09-02T09:36:57.417Z,50.70
2018-09-02T09:39:28.918Z,49.80
2018-09-02T09:42:00.435Z,50.40
2018-09-02T09:44:31.832Z,51.50
2018-09-02T09:47:03.345Z,50.50
2018-09-02T09:49:34.855Z,49.40
2018-09-02T09:52:06.933Z,49.50
2018-09-02T09:54:38.579Z,49.50
2018-09-02T09:57:09.895Z,49.80
2018-09-02T09:59:41.721Z,50.40
2018-09-02T10:02:13.110Z,49.80
2018-09-02T10:04:44.687Z,50.00
2018-09-02T10:07:16.239Z,51.40
2018-09-02T10:09:47.788Z,51.80
2018-09-02T10:12:19.354Z,53.00
2018-09-02T10:14:50.864Z,54.00
2018-09-02T10:17:22.461Z,55.90
2018-09-02T10:19:53.787Z,56.60
2018-09-02T10:22:25.516Z,56.80
2018-09-02T10:24:57.068Z,57.50
2018-09-02T10:27:28.638Z,57.90
2018-09-02T10:30:00.091Z,58.30
2018-09-02T10:32:31.437Z,57.90
2018-09-02T10:35:03.201Z,57.50
2018-09-02T10:37:34.568Z,57.80
2018-09-02T10:40:06.307Z,57.40
2018-09-02T10:42:37.776Z,57.20
2018-09-02T10:45:09.337Z,56.50
2018-09-02T10:47:41.056Z,56.40
2018-09-02T10:50:12.971Z,56.90
2018-09-02T10:52:44.586Z,57.80
2018-09-02T10:55:15.926Z,58.70
2018-09-02T10:57:47.423Z,58.40
2018-09-02T11:00:19.117Z,58.60
2018-09-02T11:02:50.411Z,59.50
2018-09-02T11:05:21.713Z,59.00
2018-09-02T11:07:53.379Z,59.50
2018-09-02T11:10:24.819Z,59.20
2018-09-02T11:12:56.625Z,58.70
2018-09-02T11:15:28.319Z,58.50
2018-09-02T11:18:00.033Z,57.90
2018-09-02T11:20:31.749Z,58.70
2018-09-02T11:23:02.927Z,58.70
2018-09-02T11:25:34.800Z,58.90
2018-09-02T11:28:06.767Z,59.10
2018-09-02T11:30:38.232Z,60.60
2018-09-02T11:33:10.202Z,62.50
2018-09-02T11:35:42.240Z,63.00
2018-09-02T11:38:14.151Z,64.00
2018-09-02T11:40:46.161Z,65.70
2018-09-02T11:43:17.612Z,67.30
2018-09-02T11:45:49.467Z,67.80
2018-09-02T11:48:20.898Z,67.80
2018-09-02T11:50:52.329Z,68.00
2018-09-02T11:53:23.388Z,68.40
2018-09-02T11:55:54.547Z,69.00
2018-09-02T11:58:26.085Z,69.40
2018-09-02T12:00:57.633Z,69.80
2018-09-02T12:03:29.058Z,70.00
2018-09-02T12:06:00.367Z,69.40
2018-09-02T12:08:31.962Z,69.60
2018-09-02T12:11:03.654Z,69.80
2018-09-02T12:13:35.187Z,69.30
2018-09-02T12:16:06.664Z,69.50
2018-09-02T12:18:38.232Z,69.10
2018-09-02T12:21:10.010Z,69.00
2018-09-02T12:23:41.969Z,68.90
2018-09-02T12:26:13.194Z,68.30
2018-09-02T12:28:44.590Z,68.20
2018-09-02T12:31:16.218Z,68.60
2018-09-02T12:33:47.847Z,68.10
2018-09-02T12:36:19.156Z,67.40
2018-09-02T12:38:50.472Z,67.30
2018-09-02T12:41:22.107Z,66.60
2018-09-02T12:43:54.144Z,66.70
2018-09-02T12:46:25.546Z,66.90
2018-09-02T12:48:56.997Z,66.50
2018-09-02T12:51:28.522Z,66.10
2018-09-02T12:54:00.395Z,66.40
2018-09-02T12:56:31.674Z,65.60
2018-09-02T12:59:02.698Z,64.80
2018-09-02T13:01:34.328Z,64.20
2018-09-02T13:04:05.638Z,64.00
2018-09-02T13:06:36.920Z,64.80
2018-09-02T13:09:09.462Z,65.20
2018-09-02T13:11:40.964Z,64.80
2018-09-02T13:14:12.452Z,64.30
2018-09-02T13:16:44.035Z,63.30
2018-09-02T13:19:15.189Z,63.60
2018-09-02T13:21:46.690Z,63.50
2018-09-02T13:24:17.773Z,63.40
2018-09-02T13:26:48.790Z,63.20
2018-09-02T13:29:19.912Z,63.30
2018-09-02T13:31:50.964Z,64.20
2018-09-02T13:34:22.364Z,64.40
2018-09-02T13:36:53.939Z,64.40
2018-09-02T13:39:25.270Z,64.30
2018-09-02T13:41:56.654Z,65.00
2018-09-02T13:44:28.550Z,65.60
2018-09-02T13:47:00.152Z,65.70
2018-09-02T13:49:31.694Z,65.70
2018-09-02T13:52:03.226Z,65.70
2018-09-02T13:54:34.727Z,66.00
2018-09-02T13:57:06.119Z,66.60
2018-09-02T13:59:37.774Z,66.50
2018-09-02T14:02:10.750Z,66.70
2018-09-02T14:08:46.217Z,67.40
2018-09-02T14:11:17.950Z,67.10
2018-09-02T14:13:49.392Z,67.30
2018-09-02T14:16:21.124Z,67.00
2018-09-02T14:18:52.724Z,66.30
2018-09-02T14:21:23.997Z,67.00
2018-09-02T14:23:55.372Z,67.60
2018-09-02T14:26:26.823Z,67.10
2018-09-02T14:28:59.381Z,68.40
2018-09-02T14:31:30.913Z,69.40
2018-09-02T14:34:02.490Z,69.90
2018-09-02T14:36:33.931Z,69.70
2018-09-02T14:39:31.945Z,70.50
2018-09-02T14:42:03.560Z,70.10
2018-09-02T14:44:35.178Z,70.00
2018-09-02T14:47:06.954Z,69.70
2018-09-02T14:49:38.884Z,69.50
2018-09-02T14:52:10.373Z,70.00
2018-09-02T14:54:42.120Z,70.30
2018-09-02T14:57:13.785Z,70.30
2018-09-02T14:59:45.289Z,70.50
2018-09-02T15:02:16.823Z,70.60
2018-09-02T15:04:48.666Z,70.60
2018-09-02T15:07:20.353Z,71.00
2018-09-02T15:09:51.826Z,71.40
2018-09-02T15:12:23.251Z,71.10
2018-09-02T15:14:55.001Z,71.40
2018-09-02T15:17:26.494Z,71.40
2018-09-02T15:19:58.164Z,71.50
2018-09-02T15:22:29.460Z,71.60
2018-09-02T15:25:00.793Z,72.10
2018-09-02T15:27:32.347Z,72.50
2018-09-02T15:30:03.813Z,72.80
2018-09-02T15:32:35.215Z,73.30
2018-09-02T15:35:07.047Z,73.80
2018-09-02T15:37:38.744Z,74.00
2018-09-02T15:40:10.347Z,74.10
2018-09-02T15:42:42.131Z,74.10
2018-09-02T15:45:13.894Z,73.80
2018-09-02T15:47:45.450Z,73.20
2018-09-02T15:50:16.970Z,74.00
2018-09-02T15:52:48.468Z,74.30
2018-09-02T15:55:19.958Z,75.00
2018-09-02T15:57:52.124Z,75.30
2018-09-02T16:00:23.854Z,75.80
2018-09-02T16:02:55.473Z,75.60
2018-09-02T16:05:27.047Z,75.70
2018-09-02T16:07:58.576Z,76.30
2018-09-02T16:10:30.031Z,75.10
2018-09-02T16:13:01.638Z,75.00
2018-09-02T16:15:33.132Z,75.10
2018-09-02T16:18:04.670Z,75.70
2018-09-02T16:20:36.391Z,75.60
2018-09-02T16:23:07.867Z,75.80
2018-09-02T16:25:39.656Z,76.60
2018-09-02T16:28:11.187Z,76.30
2018-09-02T16:30:42.686Z,76.70
2018-09-02T16:33:14.389Z,77.60
2018-09-02T16:35:46.252Z,77.70
2018-09-02T16:38:17.826Z,77.60
2018-09-02T16:40:49.285Z,77.80
2018-09-02T16:43:20.867Z,77.40
2018-09-02T16:45:52.452Z,78.10
2018-09-02T16:48:24.918Z,78.00
2018-09-02T16:50:56.303Z,77.70
2018-09-02T16:53:27.783Z,77.30
2018-09-02T16:55:59.418Z,77.30
2018-09-02T16:58:31.240Z,77.20
2018-09-02T17:01:02.939Z,77.20
2018-09-02T17:03:40.590Z,77.30
2018-09-02T17:06:12.092Z,77.40
2018-09-02T17:08:43.746Z,77.30
2018-09-02T17:11:15.026Z,77.80
2018-09-02T17:13:46.842Z,78.00
2018-09-02T17:16:18.673Z,77.40
2018-09-02T17:18:52.974Z,77.40
2018-09-02T17:21:24.438Z,77.40
2018-09-02T17:23:56.041Z,77.40
2018-09-02T17:26:27.547Z,77.80
2018-09-02T17:28:59.236Z,78.70
2018-09-02T17:31:30.660Z,78.90
2018-09-02T17:34:02.075Z,79.00
2018-09-02T17:36:33.689Z,79.20
2018-09-02T17:39:07.912Z,79.50
2018-09-02T17:41:39.880Z,79.60
2018-09-02T17:44:11.479Z,79.90
2018-09-02T17:46:43.152Z,80.00
2018-09-02T17:49:16.642Z,80.40
2018-09-02T17:51:48.296Z,80.30
2018-09-02T17:54:19.839Z,81.10
2018-09-02T17:56:51.441Z,80.60
2018-09-02T17:59:23.322Z,80.60
2018-09-02T18:01:55.191Z,80.90
2018-09-02T18:04:27.620Z,81.30
2018-09-02T18:06:59.314Z,81.10
2018-09-02T18:09:30.804Z,80.50
2018-09-02T18:12:02.321Z,81.20
2018-09-02T18:14:33.929Z,80.60
2018-09-02T18:17:05.464Z,80.20
2018-09-02T18:19:37.015Z,80.10
2018-09-02T18:22:08.936Z,80.20
2018-09-02T18:24:40.764Z,80.60
2018-09-02T18:27:13.405Z,80.00
2018-09-02T18:29:48.795Z,80.10
2018-09-02T18:32:20.272Z,79.70
2018-09-02T18:34:52.034Z,80.20
2018-09-02T18:37:23.757Z,79.80
2018-09-02T18:39:57.758Z,80.00
2018-09-02T18:42:29.491Z,80.00
2018-09-02T18:45:01.691Z,79.90
2018-09-02T18:47:33.587Z,80.20
2018-09-02T18:50:06.716Z,80.60
2018-09-02T18:52:38.572Z,80.10
2018-09-02T18:55:10.297Z,79.90
2018-09-02T18:57:42.645Z,79.80
2018-09-02T19:00:18.231Z,79.50
2018-09-02T19:02:50.274Z,79.80
2018-09-02T19:05:21.862Z,79.30
2018-09-02T19:07:53.337Z,79.10
2018-09-02T19:10:25.324Z,79.50
2018-09-02T19:12:57.594Z,79.60
2018-09-02T19:15:29.582Z,79.30
2018-09-02T19:18:02.340Z,79.30
2018-09-02T19:20:34.449Z,79.20
2018-09-02T19:23:06.501Z,79.50
2018-09-02T19:25:38.583Z,79.80
2018-09-02T19:28:11.129Z,79.40
2018-09-02T19:30:43.219Z,79.30
2018-09-02T19:33:15.301Z,79.10
2018-09-02T19:35:47.473Z,78.90
2018-09-02T19:38:20.005Z,78.90
2018-09-02T19:40:51.887Z,78.90
2018-09-02T19:43:23.939Z,78.80
2018-09-02T19:45:56.372Z,78.90
2018-09-02T19:48:28.627Z,79.10
2018-09-02T19:51:00.382Z,79.00
2018-09-02T19:53:32.528Z,79.20
2018-09-02T19:56:04.434Z,79.40
2018-09-02T19:58:36.321Z,78.90
2018-09-02T20:01:08.153Z,79.00
2018-09-02T20:03:39.930Z,79.40
2018-09-02T20:06:11.650Z,79.50
2018-09-02T20:08:43.267Z,79.50
2018-09-02T20:11:15.355Z,79.40
2018-09-02T20:13:46.913Z,79.60
2018-09-02T20:16:19.156Z,79.90
2018-09-02T20:18:50.884Z,79.60
2018-09-02T20:21:22.389Z,79.80
2018-09-02T20:23:54.035Z,79.90
2018-09-02T20:26:26.093Z,79.90
2018-09-02T20:28:57.718Z,79.70
2018-09-02T20:31:29.498Z,79.40
2018-09-02T20:34:01.554Z,79.50
2018-09-02T20:36:33.643Z,79.70
2018-09-02T20:39:07.212Z,79.80
2018-09-02T20:41:38.885Z,79.60
2018-09-02T20:44:10.240Z,79.40
2018-09-02T20:46:42.063Z,79.60
2018-09-02T20:49:13.952Z,80.20
2018-09-02T20:51:45.422Z,80.50
2018-09-02T20:54:16.938Z,80.30
2018-09-02T20:56:48.475Z,80.00
2018-09-02T20:59:20.383Z,79.90
2018-09-02T21:01:51.612Z,80.30
2018-09-02T21:04:23.257Z,80.60
2018-09-02T21:06:54.789Z,81.10
2018-09-02T21:09:26.257Z,81.40
2018-09-02T21:11:57.960Z,81.50
2018-09-02T21:14:29.587Z,82.50
2018-09-02T21:17:00.948Z,80.70
2018-09-02T21:19:32.383Z,81.00
2018-09-02T21:22:04.353Z,81.40
2018-09-02T21:24:35.893Z,80.70
2018-09-02T21:27:07.473Z,79.50
2018-09-02T21:29:39.886Z,77.30
2018-09-02T21:32:11.464Z,76.20
2018-09-02T21:34:43.593Z,76.80
2018-09-02T21:37:15.141Z,77.90
2018-09-02T21:39:46.767Z,78.60
2018-09-02T21:42:18.281Z,79.00
2018-09-02T21:44:49.846Z,79.30
2018-09-02T21:47:21.745Z,79.60
2018-09-02T21:49:53.384Z,79.90
2018-09-02T21:52:25.008Z,79.90
2018-09-02T21:54:56.460Z,80.10
2018-09-02T21:57:28.055Z,80.00
2018-09-02T21:59:59.887Z,80.00
2018-09-02T22:02:31.528Z,80.50
2018-09-02T22:05:03.251Z,80.90
2018-09-02T22:07:34.726Z,81.10
2018-09-02T22:10:06.156Z,81.60
2018-09-02T22:12:37.527Z,81.70
2018-09-02T22:15:09.948Z,81.60
2018-09-02T22:17:41.562Z,81.90
2018-09-02T22:20:12.970Z,82.50
2018-09-02T22:22:44.147Z,82.30
2018-09-02T22:25:15.944Z,82.10
2018-09-02T22:27:47.511Z,83.30
2018-09-02T22:41:05.350Z,82.40
2018-09-02T22:43:36.871Z,84.50
2018-09-02T22:46:08.302Z,83.90
2018-09-02T22:48:39.763Z,84.60
2018-09-02T22:51:11.239Z,84.20
2018-09-02T22:53:42.549Z,85.70
2018-09-02T22:56:14.127Z,86.80
2018-09-02T22:58:45.564Z,86.50
2018-09-02T23:01:16.876Z,88.10
2018-09-02T23:03:48.305Z,89.00
2018-09-02T23:06:19.912Z,89.50
2018-09-02T23:08:51.429Z,88.60
2018-09-02T23:11:22.764Z,88.80
2018-09-02T23:13:54.026Z,89.60
2018-09-02T23:16:25.188Z,89.80
2018-09-02T23:18:56.939Z,89.60
2018-09-02T23:21:28.254Z,89.20
2018-09-02T23:23:59.788Z,89.10
2018-09-02T23:26:31.059Z,88.80
2018-09-02T23:29:02.480Z,88.00
2018-09-02T23:31:34.522Z,88.40
2018-09-02T23:34:06.080Z,88.50
2018-09-02T23:36:37.335Z,88.50
2018-09-02T23:39:11.704Z,88.30
2018-09-02T23:41:43.104Z,88.60
2018-09-02T23:44:14.369Z,89.40
2018-09-02T23:46:45.741Z,89.10
2018-09-02T23:49:17.264Z,89.30
2018-09-02T23:51:48.632Z,89.10
2018-09-02T23:54:19.877Z,89.20
2018-09-02T23:56:51.380Z,89.10
2018-09-02T23:59:22.762Z,88.80
